sensor_id;sensor_type;location;lat;lon;timestamp;temperature;humidity
47174;DHT22;36730;49.036;9.094;2022-07-03T00:00:29;30.60;55.60
47174;DHT22;36730;49.036;9.094;2022-07-03T00:02:55;30.60;55.60
47174;DHT22;36730;49.036;9.094;2022-07-03T00:05:20;30.60;55.80
47174;DHT22;36730;49.036;9.094;2022-07-03T00:07:46;30.60;55.80
47174;DHT22;36730;49.036;9.094;2022-07-03T00:10:11;30.60;55.80
47174;DHT22;36730;49.036;9.094;2022-07-03T00:12:37;30.60;55.70
47174;DHT22;36730;49.036;9.094;2022-07-03T00:15:03;30.60;55.90
47174;DHT22;36730;49.036;9.094;2022-07-03T00:17:29;30.60;55.90
47174;DHT22;36730;49.036;9.094;2022-07-03T00:19:55;30.60;55.90
47174;DHT22;36730;49.036;9.094;2022-07-03T00:22:20;30.60;55.90
47174;DHT22;36730;49.036;9.094;2022-07-03T00:27:11;30.60;55.90
47174;DHT22;36730;49.036;9.094;2022-07-03T00:29:38;30.60;56.00
47174;DHT22;36730;49.036;9.094;2022-07-03T00:32:13;30.50;56.00
47174;DHT22;36730;49.036;9.094;2022-07-03T00:34:40;30.60;56.10
47174;DHT22;36730;49.036;9.094;2022-07-03T00:37:06;30.50;56.60
47174;DHT22;36730;49.036;9.094;2022-07-03T00:39:35;30.50;56.00
47174;DHT22;36730;49.036;9.094;2022-07-03T00:42:01;30.50;56.00
47174;DHT22;36730;49.036;9.094;2022-07-03T00:44:28;30.60;56.10
47174;DHT22;36730;49.036;9.094;2022-07-03T00:46:53;30.50;56.20
47174;DHT22;36730;49.036;9.094;2022-07-03T00:49:19;30.50;56.10
47174;DHT22;36730;49.036;9.094;2022-07-03T00:51:48;30.50;56.20
47174;DHT22;36730;49.036;9.094;2022-07-03T00:54:16;30.50;56.20
47174;DHT22;36730;49.036;9.094;2022-07-03T00:56:42;30.50;56.30
47174;DHT22;36730;49.036;9.094;2022-07-03T00:59:11;30.50;56.40
47174;DHT22;36730;49.036;9.094;2022-07-03T01:01:37;30.50;56.30
47174;DHT22;36730;49.036;9.094;2022-07-03T01:04:10;30.40;56.30
47174;DHT22;36730;49.036;9.094;2022-07-03T01:06:39;30.50;56.40
47174;DHT22;36730;49.036;9.094;2022-07-03T01:09:05;30.40;56.40
47174;DHT22;36730;49.036;9.094;2022-07-03T01:11:33;30.40;56.30
47174;DHT22;36730;49.036;9.094;2022-07-03T01:16:27;30.40;56.60
47174;DHT22;36730;49.036;9.094;2022-07-03T01:26:35;30.40;56.70
47174;DHT22;36730;49.036;9.094;2022-07-03T01:29:10;30.40;56.80
47174;DHT22;36730;49.036;9.094;2022-07-03T01:31:38;30.40;57.00
47174;DHT22;36730;49.036;9.094;2022-07-03T01:34:07;30.40;56.80
47174;DHT22;36730;49.036;9.094;2022-07-03T01:36:34;30.40;57.00
47174;DHT22;36730;49.036;9.094;2022-07-03T01:39:03;30.40;57.00
47174;DHT22;36730;49.036;9.094;2022-07-03T01:41:29;30.30;57.00
47174;DHT22;36730;49.036;9.094;2022-07-03T01:43:56;30.30;57.00
47174;DHT22;36730;49.036;9.094;2022-07-03T01:46:27;30.30;57.20
47174;DHT22;36730;49.036;9.094;2022-07-03T01:48:53;30.30;57.10
47174;DHT22;36730;49.036;9.094;2022-07-03T01:51:19;30.30;57.10
47174;DHT22;36730;49.036;9.094;2022-07-03T01:53:46;30.30;57.10
47174;DHT22;36730;49.036;9.094;2022-07-03T01:56:12;30.30;57.00
47174;DHT22;36730;49.036;9.094;2022-07-03T01:58:38;30.30;57.10
47174;DHT22;36730;49.036;9.094;2022-07-03T02:01:25;30.30;57.20
47174;DHT22;36730;49.036;9.094;2022-07-03T02:04:14;30.30;57.20
47174;DHT22;36730;49.036;9.094;2022-07-03T02:06:41;30.40;57.20
47174;DHT22;36730;49.036;9.094;2022-07-03T02:09:08;30.30;57.20
47174;DHT22;36730;49.036;9.094;2022-07-03T02:11:35;30.30;57.30
47174;DHT22;36730;49.036;9.094;2022-07-03T02:16:30;30.40;57.30
47174;DHT22;36730;49.036;9.094;2022-07-03T02:19:03;30.30;57.10
47174;DHT22;36730;49.036;9.094;2022-07-03T02:21:30;30.30;57.20
47174;DHT22;36730;49.036;9.094;2022-07-03T02:26:34;30.30;57.10
47174;DHT22;36730;49.036;9.094;2022-07-03T02:29:03;30.40;57.30
47174;DHT22;36730;49.036;9.094;2022-07-03T02:31:32;30.30;57.30
47174;DHT22;36730;49.036;9.094;2022-07-03T02:33:59;30.30;57.40
47174;DHT22;36730;49.036;9.094;2022-07-03T02:36:27;30.30;57.50
47174;DHT22;36730;49.036;9.094;2022-07-03T02:38:54;30.30;57.40
47174;DHT22;36730;49.036;9.094;2022-07-03T02:41:24;30.30;57.30
47174;DHT22;36730;49.036;9.094;2022-07-03T02:43:59;30.30;57.40
47174;DHT22;36730;49.036;9.094;2022-07-03T02:51:46;30.30;57.20
47174;DHT22;36730;49.036;9.094;2022-07-03T02:54:14;30.30;57.40
47174;DHT22;36730;49.036;9.094;2022-07-03T03:02:07;30.20;57.50
47174;DHT22;36730;49.036;9.094;2022-07-03T03:04:39;30.30;57.60
47174;DHT22;36730;49.036;9.094;2022-07-03T03:07:08;30.30;57.50
47174;DHT22;36730;49.036;9.094;2022-07-03T03:09:40;30.20;57.40
47174;DHT22;36730;49.036;9.094;2022-07-03T03:12:06;30.30;57.50
47174;DHT22;36730;49.036;9.094;2022-07-03T03:14:40;30.30;57.60
47174;DHT22;36730;49.036;9.094;2022-07-03T03:17:06;30.30;57.80
47174;DHT22;36730;49.036;9.094;2022-07-03T03:19:35;30.30;57.80
47174;DHT22;36730;49.036;9.094;2022-07-03T03:24:45;30.20;57.70
47174;DHT22;36730;49.036;9.094;2022-07-03T03:27:10;30.20;57.70
47174;DHT22;36730;49.036;9.094;2022-07-03T03:29:37;30.20;58.00
47174;DHT22;36730;49.036;9.094;2022-07-03T03:32:03;30.20;58.00
47174;DHT22;36730;49.036;9.094;2022-07-03T03:34:28;30.20;57.80
47174;DHT22;36730;49.036;9.094;2022-07-03T03:36:55;30.20;57.90
47174;DHT22;36730;49.036;9.094;2022-07-03T03:39:20;30.20;57.90
47174;DHT22;36730;49.036;9.094;2022-07-03T03:41:46;30.20;57.90
47174;DHT22;36730;49.036;9.094;2022-07-03T03:44:11;30.10;57.90
47174;DHT22;36730;49.036;9.094;2022-07-03T03:46:37;30.10;57.90
47174;DHT22;36730;49.036;9.094;2022-07-03T03:49:02;30.10;57.90
47174;DHT22;36730;49.036;9.094;2022-07-03T03:51:28;30.10;58.10
47174;DHT22;36730;49.036;9.094;2022-07-03T03:53:53;30.20;58.10
47174;DHT22;36730;49.036;9.094;2022-07-03T03:56:19;30.10;57.90
47174;DHT22;36730;49.036;9.094;2022-07-03T03:58:44;30.20;58.00
47174;DHT22;36730;49.036;9.094;2022-07-03T04:01:10;30.20;58.00
47174;DHT22;36730;49.036;9.094;2022-07-03T04:03:36;30.20;58.00
47174;DHT22;36730;49.036;9.094;2022-07-03T04:06:02;30.20;58.10
47174;DHT22;36730;49.036;9.094;2022-07-03T04:08:28;30.10;58.10
47174;DHT22;36730;49.036;9.094;2022-07-03T04:10:53;30.20;58.10
47174;DHT22;36730;49.036;9.094;2022-07-03T04:13:19;30.10;58.10
47174;DHT22;36730;49.036;9.094;2022-07-03T04:15:51;30.20;58.20
47174;DHT22;36730;49.036;9.094;2022-07-03T04:18:16;30.20;58.10
47174;DHT22;36730;49.036;9.094;2022-07-03T04:20:42;30.20;58.10
47174;DHT22;36730;49.036;9.094;2022-07-03T04:23:08;30.20;58.00
47174;DHT22;36730;49.036;9.094;2022-07-03T04:25:33;30.20;57.90
47174;DHT22;36730;49.036;9.094;2022-07-03T04:27:58;30.20;57.90
47174;DHT22;36730;49.036;9.094;2022-07-03T04:30:24;30.20;57.80
47174;DHT22;36730;49.036;9.094;2022-07-03T04:32:49;30.20;58.20
47174;DHT22;36730;49.036;9.094;2022-07-03T04:35:15;30.20;58.00
47174;DHT22;36730;49.036;9.094;2022-07-03T04:37:41;30.20;58.00
47174;DHT22;36730;49.036;9.094;2022-07-03T04:40:07;30.20;58.10
47174;DHT22;36730;49.036;9.094;2022-07-03T04:42:32;30.20;58.20
47174;DHT22;36730;49.036;9.094;2022-07-03T04:44:58;30.20;58.20
47174;DHT22;36730;49.036;9.094;2022-07-03T04:47:23;30.20;58.20
47174;DHT22;36730;49.036;9.094;2022-07-03T04:49:49;30.20;58.20
47174;DHT22;36730;49.036;9.094;2022-07-03T04:52:14;30.20;58.20
47174;DHT22;36730;49.036;9.094;2022-07-03T04:54:40;30.30;58.20
47174;DHT22;36730;49.036;9.094;2022-07-03T04:57:05;30.30;58.20
47174;DHT22;36730;49.036;9.094;2022-07-03T04:59:31;30.20;58.10
47174;DHT22;36730;49.036;9.094;2022-07-03T05:01:56;30.20;59.00
47174;DHT22;36730;49.036;9.094;2022-07-03T05:04:22;30.20;58.40
47174;DHT22;36730;49.036;9.094;2022-07-03T05:06:47;30.30;58.40
47174;DHT22;36730;49.036;9.094;2022-07-03T05:09:13;30.30;58.60
47174;DHT22;36730;49.036;9.094;2022-07-03T05:11:39;30.20;58.60
47174;DHT22;36730;49.036;9.094;2022-07-03T05:14:06;30.30;58.60
47174;DHT22;36730;49.036;9.094;2022-07-03T05:16:32;30.30;58.60
47174;DHT22;36730;49.036;9.094;2022-07-03T05:18:58;30.20;58.40
47174;DHT22;36730;49.036;9.094;2022-07-03T05:21:23;30.20;58.40
47174;DHT22;36730;49.036;9.094;2022-07-03T05:23:49;30.30;58.50
47174;DHT22;36730;49.036;9.094;2022-07-03T05:26:14;30.30;58.90
47174;DHT22;36730;49.036;9.094;2022-07-03T05:28:40;30.20;58.70
47174;DHT22;36730;49.036;9.094;2022-07-03T05:31:05;30.30;58.60
47174;DHT22;36730;49.036;9.094;2022-07-03T05:33:31;30.30;58.70
47174;DHT22;36730;49.036;9.094;2022-07-03T05:35:57;30.30;58.50
47174;DHT22;36730;49.036;9.094;2022-07-03T05:38:23;30.30;58.50
47174;DHT22;36730;49.036;9.094;2022-07-03T05:41:07;30.30;58.70
47174;DHT22;36730;49.036;9.094;2022-07-03T05:43:32;30.30;58.30
47174;DHT22;36730;49.036;9.094;2022-07-03T05:45:58;30.30;58.20
47174;DHT22;36730;49.036;9.094;2022-07-03T05:48:23;30.30;58.50
47174;DHT22;36730;49.036;9.094;2022-07-03T05:50:49;30.30;58.70
47174;DHT22;36730;49.036;9.094;2022-07-03T05:53:14;30.40;58.80
47174;DHT22;36730;49.036;9.094;2022-07-03T05:55:40;30.40;58.20
47174;DHT22;36730;49.036;9.094;2022-07-03T05:58:05;30.40;58.60
47174;DHT22;36730;49.036;9.094;2022-07-03T06:00:31;30.40;58.40
47174;DHT22;36730;49.036;9.094;2022-07-03T06:02:56;30.40;58.30
47174;DHT22;36730;49.036;9.094;2022-07-03T06:05:22;30.40;58.50
47174;DHT22;36730;49.036;9.094;2022-07-03T06:07:47;30.40;58.20
47174;DHT22;36730;49.036;9.094;2022-07-03T06:10:15;30.40;58.20
47174;DHT22;36730;49.036;9.094;2022-07-03T06:12:40;30.50;58.40
47174;DHT22;36730;49.036;9.094;2022-07-03T06:15:06;30.50;58.50
47174;DHT22;36730;49.036;9.094;2022-07-03T06:17:33;30.50;58.50
47174;DHT22;36730;49.036;9.094;2022-07-03T06:19:59;30.50;58.50
47174;DHT22;36730;49.036;9.094;2022-07-03T06:22:24;30.50;58.20
47174;DHT22;36730;49.036;9.094;2022-07-03T06:24:50;30.50;58.30
47174;DHT22;36730;49.036;9.094;2022-07-03T06:27:15;30.50;58.00
47174;DHT22;36730;49.036;9.094;2022-07-03T06:29:41;30.60;58.20
47174;DHT22;36730;49.036;9.094;2022-07-03T06:32:06;30.60;58.20
47174;DHT22;36730;49.036;9.094;2022-07-03T06:34:32;30.60;58.00
47174;DHT22;36730;49.036;9.094;2022-07-03T06:36:57;30.60;58.00
47174;DHT22;36730;49.036;9.094;2022-07-03T06:39:23;30.60;57.90
47174;DHT22;36730;49.036;9.094;2022-07-03T06:41:48;30.60;58.10
47174;DHT22;36730;49.036;9.094;2022-07-03T06:44:14;30.70;57.90
47174;DHT22;36730;49.036;9.094;2022-07-03T06:46:39;30.70;57.90
47174;DHT22;36730;49.036;9.094;2022-07-03T06:49:05;30.70;57.80
47174;DHT22;36730;49.036;9.094;2022-07-03T06:51:30;30.70;57.90
47174;DHT22;36730;49.036;9.094;2022-07-03T06:53:56;30.70;58.00
47174;DHT22;36730;49.036;9.094;2022-07-03T06:56:21;30.80;58.10
47174;DHT22;36730;49.036;9.094;2022-07-03T06:58:47;30.80;58.00
47174;DHT22;36730;49.036;9.094;2022-07-03T07:01:12;30.80;57.70
47174;DHT22;36730;49.036;9.094;2022-07-03T07:03:38;30.90;57.80
47174;DHT22;36730;49.036;9.094;2022-07-03T07:06:03;30.90;57.80
47174;DHT22;36730;49.036;9.094;2022-07-03T07:08:28;30.90;57.70
47174;DHT22;36730;49.036;9.094;2022-07-03T07:10:54;30.90;57.80
47174;DHT22;36730;49.036;9.094;2022-07-03T07:13:19;30.90;57.70
47174;DHT22;36730;49.036;9.094;2022-07-03T07:15:45;31.00;57.70
47174;DHT22;36730;49.036;9.094;2022-07-03T07:18:10;31.00;57.80
47174;DHT22;36730;49.036;9.094;2022-07-03T07:20:36;31.00;57.60
47174;DHT22;36730;49.036;9.094;2022-07-03T07:23:01;31.10;58.00
47174;DHT22;36730;49.036;9.094;2022-07-03T07:25:27;31.00;57.60
47174;DHT22;36730;49.036;9.094;2022-07-03T07:27:52;31.10;57.60
47174;DHT22;36730;49.036;9.094;2022-07-03T07:30:18;31.10;57.50
47174;DHT22;36730;49.036;9.094;2022-07-03T07:32:43;31.20;57.60
47174;DHT22;36730;49.036;9.094;2022-07-03T07:35:09;31.20;57.50
47174;DHT22;36730;49.036;9.094;2022-07-03T07:37:34;31.20;57.50
47174;DHT22;36730;49.036;9.094;2022-07-03T07:40:00;31.20;57.20
47174;DHT22;36730;49.036;9.094;2022-07-03T07:42:25;31.30;57.50
47174;DHT22;36730;49.036;9.094;2022-07-03T07:44:53;31.20;57.20
47174;DHT22;36730;49.036;9.094;2022-07-03T07:47:18;31.30;57.10
47174;DHT22;36730;49.036;9.094;2022-07-03T07:49:44;31.40;57.40
47174;DHT22;36730;49.036;9.094;2022-07-03T07:52:09;31.40;57.20
47174;DHT22;36730;49.036;9.094;2022-07-03T07:54:35;31.40;57.60
47174;DHT22;36730;49.036;9.094;2022-07-03T07:57:01;31.40;57.10
47174;DHT22;36730;49.036;9.094;2022-07-03T07:59:26;31.40;57.00
47174;DHT22;36730;49.036;9.094;2022-07-03T08:01:52;31.40;57.00
47174;DHT22;36730;49.036;9.094;2022-07-03T08:04:36;31.50;57.00
47174;DHT22;36730;49.036;9.094;2022-07-03T08:07:20;31.50;57.00
47174;DHT22;36730;49.036;9.094;2022-07-03T08:09:46;31.60;57.00
47174;DHT22;36730;49.036;9.094;2022-07-03T08:12:11;31.60;56.80
47174;DHT22;36730;49.036;9.094;2022-07-03T08:14:37;31.60;56.90
47174;DHT22;36730;49.036;9.094;2022-07-03T08:17:03;31.60;56.80
47174;DHT22;36730;49.036;9.094;2022-07-03T08:19:29;31.60;56.60
47174;DHT22;36730;49.036;9.094;2022-07-03T08:21:54;31.70;56.80
47174;DHT22;36730;49.036;9.094;2022-07-03T08:24:20;31.70;56.80
47174;DHT22;36730;49.036;9.094;2022-07-03T08:26:46;31.70;56.70
47174;DHT22;36730;49.036;9.094;2022-07-03T08:29:11;31.80;56.80
47174;DHT22;36730;49.036;9.094;2022-07-03T08:31:37;31.80;56.80
47174;DHT22;36730;49.036;9.094;2022-07-03T08:34:02;31.80;56.70
47174;DHT22;36730;49.036;9.094;2022-07-03T08:36:28;31.80;56.60
47174;DHT22;36730;49.036;9.094;2022-07-03T08:38:53;31.90;56.70
47174;DHT22;36730;49.036;9.094;2022-07-03T08:41:19;31.90;56.60
47174;DHT22;36730;49.036;9.094;2022-07-03T08:43:45;31.90;56.50
47174;DHT22;36730;49.036;9.094;2022-07-03T08:46:12;31.90;56.50
47174;DHT22;36730;49.036;9.094;2022-07-03T08:48:38;32.00;56.50
47174;DHT22;36730;49.036;9.094;2022-07-03T08:51:05;32.00;56.60
47174;DHT22;36730;49.036;9.094;2022-07-03T08:53:30;32.00;56.60
47174;DHT22;36730;49.036;9.094;2022-07-03T08:55:56;32.00;56.60
47174;DHT22;36730;49.036;9.094;2022-07-03T08:58:22;32.00;56.40
47174;DHT22;36730;49.036;9.094;2022-07-03T09:00:48;32.10;56.50
47174;DHT22;36730;49.036;9.094;2022-07-03T09:03:13;32.10;56.40
47174;DHT22;36730;49.036;9.094;2022-07-03T09:05:39;32.10;56.40
47174;DHT22;36730;49.036;9.094;2022-07-03T09:08:08;32.20;56.40
47174;DHT22;36730;49.036;9.094;2022-07-03T09:10:34;32.20;56.30
47174;DHT22;36730;49.036;9.094;2022-07-03T09:13:00;32.20;56.30
47174;DHT22;36730;49.036;9.094;2022-07-03T09:15:25;32.20;56.20
47174;DHT22;36730;49.036;9.094;2022-07-03T09:18:01;32.30;56.20
47174;DHT22;36730;49.036;9.094;2022-07-03T09:20:28;32.30;56.20
47174;DHT22;36730;49.036;9.094;2022-07-03T09:22:55;32.30;56.00
47174;DHT22;36730;49.036;9.094;2022-07-03T09:25:23;32.40;56.00
47174;DHT22;36730;49.036;9.094;2022-07-03T09:27:49;32.40;55.80
47174;DHT22;36730;49.036;9.094;2022-07-03T09:30:16;32.40;55.80
47174;DHT22;36730;49.036;9.094;2022-07-03T09:32:42;32.50;56.10
47174;DHT22;36730;49.036;9.094;2022-07-03T09:35:24;32.50;55.70
47174;DHT22;36730;49.036;9.094;2022-07-03T09:37:51;32.50;55.60
47174;DHT22;36730;49.036;9.094;2022-07-03T09:40:17;32.60;55.60
47174;DHT22;36730;49.036;9.094;2022-07-03T09:45:27;32.60;55.40
47174;DHT22;36730;49.036;9.094;2022-07-03T09:48:23;32.60;55.50
47174;DHT22;36730;49.036;9.094;2022-07-03T09:50:48;32.60;56.20
47174;DHT22;36730;49.036;9.094;2022-07-03T09:53:14;32.70;56.10
47174;DHT22;36730;49.036;9.094;2022-07-03T09:55:39;32.70;56.30
47174;DHT22;36730;49.036;9.094;2022-07-03T09:58:05;32.70;56.10
47174;DHT22;36730;49.036;9.094;2022-07-03T10:00:31;32.80;55.60
47174;DHT22;36730;49.036;9.094;2022-07-03T10:03:07;32.80;55.40
47174;DHT22;36730;49.036;9.094;2022-07-03T10:05:39;32.80;55.10
47174;DHT22;36730;49.036;9.094;2022-07-03T10:08:06;32.90;55.10
47174;DHT22;36730;49.036;9.094;2022-07-03T10:10:34;32.90;55.10
47174;DHT22;36730;49.036;9.094;2022-07-03T10:12:59;32.90;55.00
47174;DHT22;36730;49.036;9.094;2022-07-03T10:15:26;32.90;54.90
47174;DHT22;36730;49.036;9.094;2022-07-03T10:17:53;33.00;55.40
47174;DHT22;36730;49.036;9.094;2022-07-03T10:20:23;33.00;54.90
47174;DHT22;36730;49.036;9.094;2022-07-03T10:22:48;33.00;54.80
47174;DHT22;36730;49.036;9.094;2022-07-03T10:25:15;33.10;54.80
47174;DHT22;36730;49.036;9.094;2022-07-03T10:27:41;33.10;55.30
47174;DHT22;36730;49.036;9.094;2022-07-03T10:30:07;33.10;54.70
47174;DHT22;36730;49.036;9.094;2022-07-03T10:32:33;33.20;54.70
47174;DHT22;36730;49.036;9.094;2022-07-03T10:35:00;33.20;54.50
47174;DHT22;36730;49.036;9.094;2022-07-03T10:37:27;33.20;54.50
47174;DHT22;36730;49.036;9.094;2022-07-03T10:42:21;33.30;54.90
47174;DHT22;36730;49.036;9.094;2022-07-03T10:45:09;33.20;55.10
47174;DHT22;36730;49.036;9.094;2022-07-03T10:47:39;33.30;55.00
47174;DHT22;36730;49.036;9.094;2022-07-03T10:50:09;33.30;55.30
47174;DHT22;36730;49.036;9.094;2022-07-03T10:52:35;33.30;54.70
47174;DHT22;36730;49.036;9.094;2022-07-03T10:55:01;33.30;55.40
47174;DHT22;36730;49.036;9.094;2022-07-03T10:57:28;33.40;55.20
47174;DHT22;36730;49.036;9.094;2022-07-03T11:02:23;33.40;55.30
47174;DHT22;36730;49.036;9.094;2022-07-03T11:07:29;33.50;55.20
47174;DHT22;36730;49.036;9.094;2022-07-03T11:15:33;33.50;55.20
47174;DHT22;36730;49.036;9.094;2022-07-03T11:20:37;33.60;54.10
47174;DHT22;36730;49.036;9.094;2022-07-03T11:23:13;33.60;54.40
47174;DHT22;36730;49.036;9.094;2022-07-03T11:25:45;33.60;54.40
47174;DHT22;36730;49.036;9.094;2022-07-03T11:36:10;33.80;54.20
47174;DHT22;36730;49.036;9.094;2022-07-03T11:38:36;33.80;53.90
47174;DHT22;36730;49.036;9.094;2022-07-03T11:41:06;33.80;53.80
47174;DHT22;36730;49.036;9.094;2022-07-03T11:43:31;33.90;53.70
47174;DHT22;36730;49.036;9.094;2022-07-03T11:45:57;33.90;53.70
47174;DHT22;36730;49.036;9.094;2022-07-03T11:48:23;33.90;53.70
47174;DHT22;36730;49.036;9.094;2022-07-03T11:50:49;34.00;53.70
47174;DHT22;36730;49.036;9.094;2022-07-03T11:56:12;34.00;53.90
47174;DHT22;36730;49.036;9.094;2022-07-03T11:58:47;34.00;53.60
47174;DHT22;36730;49.036;9.094;2022-07-03T12:06:34;34.10;53.60
47174;DHT22;36730;49.036;9.094;2022-07-03T12:09:00;34.10;53.50
47174;DHT22;36730;49.036;9.094;2022-07-03T12:11:25;34.10;53.60
47174;DHT22;36730;49.036;9.094;2022-07-03T12:13:50;34.10;53.50
47174;DHT22;36730;49.036;9.094;2022-07-03T12:16:18;34.10;53.40
47174;DHT22;36730;49.036;9.094;2022-07-03T12:21:12;34.10;53.40
47174;DHT22;36730;49.036;9.094;2022-07-03T12:26:07;34.10;53.50
47174;DHT22;36730;49.036;9.094;2022-07-03T12:28:32;34.20;53.40
47174;DHT22;36730;49.036;9.094;2022-07-03T12:30:58;34.20;54.20
47174;DHT22;36730;49.036;9.094;2022-07-03T12:33:23;34.30;53.70
47174;DHT22;36730;49.036;9.094;2022-07-03T12:36:01;34.30;53.50
47174;DHT22;36730;49.036;9.094;2022-07-03T12:38:30;34.30;53.40
47174;DHT22;36730;49.036;9.094;2022-07-03T12:41:05;34.30;53.30
47174;DHT22;36730;49.036;9.094;2022-07-03T12:43:37;34.30;53.30
47174;DHT22;36730;49.036;9.094;2022-07-03T12:46:14;34.40;53.30
47174;DHT22;36730;49.036;9.094;2022-07-03T12:48:50;34.40;53.20
47174;DHT22;36730;49.036;9.094;2022-07-03T12:51:17;34.40;53.30
47174;DHT22;36730;49.036;9.094;2022-07-03T12:54:00;34.50;53.30
47174;DHT22;36730;49.036;9.094;2022-07-03T12:56:26;34.50;53.20
47174;DHT22;36730;49.036;9.094;2022-07-03T12:58:51;34.50;53.10
47174;DHT22;36730;49.036;9.094;2022-07-03T13:01:35;34.50;53.20
47174;DHT22;36730;49.036;9.094;2022-07-03T13:04:07;34.50;53.20
47174;DHT22;36730;49.036;9.094;2022-07-03T13:06:42;34.60;53.20
47174;DHT22;36730;49.036;9.094;2022-07-03T13:09:10;34.60;53.20
47174;DHT22;36730;49.036;9.094;2022-07-03T13:11:40;34.60;53.20
47174;DHT22;36730;49.036;9.094;2022-07-03T13:14:13;34.70;53.10
47174;DHT22;36730;49.036;9.094;2022-07-03T13:16:41;34.70;53.00
47174;DHT22;36730;49.036;9.094;2022-07-03T13:19:07;34.70;53.00
47174;DHT22;36730;49.036;9.094;2022-07-03T13:21:33;34.70;52.90
47174;DHT22;36730;49.036;9.094;2022-07-03T13:23:59;34.70;52.90
47174;DHT22;36730;49.036;9.094;2022-07-03T13:26:24;34.70;52.90
47174;DHT22;36730;49.036;9.094;2022-07-03T13:28:49;34.70;52.90
47174;DHT22;36730;49.036;9.094;2022-07-03T13:31:15;34.70;52.90
47174;DHT22;36730;49.036;9.094;2022-07-03T13:33:41;34.70;52.90
47174;DHT22;36730;49.036;9.094;2022-07-03T13:36:06;34.80;52.90
47174;DHT22;36730;49.036;9.094;2022-07-03T13:38:32;34.80;52.80
47174;DHT22;36730;49.036;9.094;2022-07-03T13:40:57;34.80;52.90
47174;DHT22;36730;49.036;9.094;2022-07-03T13:43:23;34.80;52.90
47174;DHT22;36730;49.036;9.094;2022-07-03T13:45:48;34.80;52.80
47174;DHT22;36730;49.036;9.094;2022-07-03T13:48:14;34.90;52.90
47174;DHT22;36730;49.036;9.094;2022-07-03T13:50:41;34.90;52.90
47174;DHT22;36730;49.036;9.094;2022-07-03T13:53:06;34.90;52.90
47174;DHT22;36730;49.036;9.094;2022-07-03T13:55:32;34.90;52.80
47174;DHT22;36730;49.036;9.094;2022-07-03T13:57:57;34.90;52.80
47174;DHT22;36730;49.036;9.094;2022-07-03T14:00:23;34.90;52.90
47174;DHT22;36730;49.036;9.094;2022-07-03T14:02:48;34.90;52.70
47174;DHT22;36730;49.036;9.094;2022-07-03T14:05:14;35.00;52.80
47174;DHT22;36730;49.036;9.094;2022-07-03T14:07:39;35.00;53.40
47174;DHT22;36730;49.036;9.094;2022-07-03T14:10:05;35.00;52.80
47174;DHT22;36730;49.036;9.094;2022-07-03T14:12:31;35.00;52.80
47174;DHT22;36730;49.036;9.094;2022-07-03T14:14:56;35.00;52.70
47174;DHT22;36730;49.036;9.094;2022-07-03T14:17:22;35.00;52.60
47174;DHT22;36730;49.036;9.094;2022-07-03T14:19:47;35.00;52.60
47174;DHT22;36730;49.036;9.094;2022-07-03T14:22:13;35.00;52.70
47174;DHT22;36730;49.036;9.094;2022-07-03T14:24:38;35.10;52.70
47174;DHT22;36730;49.036;9.094;2022-07-03T14:27:04;35.00;52.60
47174;DHT22;36730;49.036;9.094;2022-07-03T14:29:48;35.10;52.70
47174;DHT22;36730;49.036;9.094;2022-07-03T14:32:33;35.10;52.60
47174;DHT22;36730;49.036;9.094;2022-07-03T14:34:59;35.10;52.60
47174;DHT22;36730;49.036;9.094;2022-07-03T14:37:24;35.10;52.40
47174;DHT22;36730;49.036;9.094;2022-07-03T14:39:50;35.10;52.40
47174;DHT22;36730;49.036;9.094;2022-07-03T14:42:16;35.10;52.70
47174;DHT22;36730;49.036;9.094;2022-07-03T14:44:41;35.10;52.60
47174;DHT22;36730;49.036;9.094;2022-07-03T14:47:07;35.10;52.60
47174;DHT22;36730;49.036;9.094;2022-07-03T14:49:33;35.10;52.60
47174;DHT22;36730;49.036;9.094;2022-07-03T14:52:02;35.20;52.70
47174;DHT22;36730;49.036;9.094;2022-07-03T14:54:28;35.10;52.50
47174;DHT22;36730;49.036;9.094;2022-07-03T14:56:55;35.20;52.70
47174;DHT22;36730;49.036;9.094;2022-07-03T14:59:27;35.20;52.70
47174;DHT22;36730;49.036;9.094;2022-07-03T15:01:57;35.20;52.70
47174;DHT22;36730;49.036;9.094;2022-07-03T15:06:54;35.20;52.60
47174;DHT22;36730;49.036;9.094;2022-07-03T15:09:24;35.20;52.70
47174;DHT22;36730;49.036;9.094;2022-07-03T15:11:53;35.20;52.60
47174;DHT22;36730;49.036;9.094;2022-07-03T15:14:39;35.20;52.60
47174;DHT22;36730;49.036;9.094;2022-07-03T15:17:04;35.20;52.60
47174;DHT22;36730;49.036;9.094;2022-07-03T15:19:31;35.20;52.70
47174;DHT22;36730;49.036;9.094;2022-07-03T15:21:58;35.20;52.50
47174;DHT22;36730;49.036;9.094;2022-07-03T15:24:24;35.20;52.60
47174;DHT22;36730;49.036;9.094;2022-07-03T15:26:52;35.20;52.70
47174;DHT22;36730;49.036;9.094;2022-07-03T15:29:18;35.20;52.70
47174;DHT22;36730;49.036;9.094;2022-07-03T15:31:44;35.20;52.70
47174;DHT22;36730;49.036;9.094;2022-07-03T15:34:11;35.20;52.70
47174;DHT22;36730;49.036;9.094;2022-07-03T15:36:49;35.20;52.70
47174;DHT22;36730;49.036;9.094;2022-07-03T15:39:17;35.20;52.70
47174;DHT22;36730;49.036;9.094;2022-07-03T15:41:52;35.20;52.70
47174;DHT22;36730;49.036;9.094;2022-07-03T15:44:20;35.20;52.70
47174;DHT22;36730;49.036;9.094;2022-07-03T15:47:05;35.20;52.70
47174;DHT22;36730;49.036;9.094;2022-07-03T15:49:39;35.20;52.80
47174;DHT22;36730;49.036;9.094;2022-07-03T15:52:18;35.20;52.80
47174;DHT22;36730;49.036;9.094;2022-07-03T15:57:32;35.20;52.90
47174;DHT22;36730;49.036;9.094;2022-07-03T15:59:59;35.20;52.80
47174;DHT22;36730;49.036;9.094;2022-07-03T16:02:26;35.10;52.80
47174;DHT22;36730;49.036;9.094;2022-07-03T16:05:09;35.10;52.90
47174;DHT22;36730;49.036;9.094;2022-07-03T16:07:38;35.10;53.10
47174;DHT22;36730;49.036;9.094;2022-07-03T16:10:08;35.10;53.20
47174;DHT22;36730;49.036;9.094;2022-07-03T16:12:34;35.10;53.10
47174;DHT22;36730;49.036;9.094;2022-07-03T16:15:00;35.10;53.10
47174;DHT22;36730;49.036;9.094;2022-07-03T16:17:26;35.10;53.20
47174;DHT22;36730;49.036;9.094;2022-07-03T16:19:52;35.00;53.10
47174;DHT22;36730;49.036;9.094;2022-07-03T16:22:17;35.10;53.20
47174;DHT22;36730;49.036;9.094;2022-07-03T16:24:43;35.00;53.10
47174;DHT22;36730;49.036;9.094;2022-07-03T16:27:14;35.00;53.20
47174;DHT22;36730;49.036;9.094;2022-07-03T16:29:40;35.10;53.20
47174;DHT22;36730;49.036;9.094;2022-07-03T16:32:07;35.00;53.20
47174;DHT22;36730;49.036;9.094;2022-07-03T16:34:38;35.00;53.20
47174;DHT22;36730;49.036;9.094;2022-07-03T16:37:06;35.00;53.20
47174;DHT22;36730;49.036;9.094;2022-07-03T16:39:33;35.00;53.30
47174;DHT22;36730;49.036;9.094;2022-07-03T16:41:59;35.00;53.30
47174;DHT22;36730;49.036;9.094;2022-07-03T16:44:26;34.90;53.30
47174;DHT22;36730;49.036;9.094;2022-07-03T16:46:51;34.90;53.30